sensor_id;sensor_type;location;lat;lon;timestamp;temperature;humidity
71396;DHT22;59888;55.814;37.132;2023-02-04T00:01:05;3.12;65.04
71396;DHT22;59888;55.814;37.132;2023-02-04T00:03:31;3.01;65.06
71396;DHT22;59888;55.814;37.132;2023-02-04T00:05:57;3.05;65.23
71396;DHT22;59888;55.814;37.132;2023-02-04T00:08:23;3.12;65.21
71396;DHT22;59888;55.814;37.132;2023-02-04T00:10:49;3.26;65.11
71396;DHT22;59888;55.814;37.132;2023-02-04T00:13:15;3.35;64.95
71396;DHT22;59888;55.814;37.132;2023-02-04T00:15:40;3.42;64.74
71396;DHT22;59888;55.814;37.132;2023-02-04T00:18:06;3.33;64.64
71396;DHT22;59888;55.814;37.132;2023-02-04T00:20:34;3.42;64.71
71396;DHT22;59888;55.814;37.132;2023-02-04T00:23:00;3.41;64.52
71396;DHT22;59888;55.814;37.132;2023-02-04T00:25:26;3.36;64.67
71396;DHT22;59888;55.814;37.132;2023-02-04T00:27:51;3.41;64.68
71396;DHT22;59888;55.814;37.132;2023-02-04T00:30:18;3.50;64.54
71396;DHT22;59888;55.814;37.132;2023-02-04T00:32:44;3.43;64.43
71396;DHT22;59888;55.814;37.132;2023-02-04T00:35:11;3.36;64.39
71396;DHT22;59888;55.814;37.132;2023-02-04T00:37:37;3.33;64.50
71396;DHT22;59888;55.814;37.132;2023-02-04T00:40:03;3.20;64.58
71396;DHT22;59888;55.814;37.132;2023-02-04T00:42:29;3.18;64.75
71396;DHT22;59888;55.814;37.132;2023-02-04T00:44:57;3.21;64.68
71396;DHT22;59888;55.814;37.132;2023-02-04T00:47:23;3.25;64.70
71396;DHT22;59888;55.814;37.132;2023-02-04T00:49:49;3.28;64.62
71396;DHT22;59888;55.814;37.132;2023-02-04T00:52:15;3.35;64.60
71396;DHT22;59888;55.814;37.132;2023-02-04T00:54:40;3.32;64.45
71396;DHT22;59888;55.814;37.132;2023-02-04T00:57:06;3.28;64.52
71396;DHT22;59888;55.814;37.132;2023-02-04T00:59:32;3.21;64.61
71396;DHT22;59888;55.814;37.132;2023-02-04T01:01:58;3.25;64.65
71396;DHT22;59888;55.814;37.132;2023-02-04T01:04:25;3.27;64.57
71396;DHT22;59888;55.814;37.132;2023-02-04T01:06:52;3.28;64.61
71396;DHT22;59888;55.814;37.132;2023-02-04T01:09:18;3.35;64.54
71396;DHT22;59888;55.814;37.132;2023-02-04T01:11:45;3.38;64.47
71396;DHT22;59888;55.814;37.132;2023-02-04T01:14:11;3.36;64.31
71396;DHT22;59888;55.814;37.132;2023-02-04T01:16:38;3.33;64.40
71396;DHT22;59888;55.814;37.132;2023-02-04T01:19:04;3.27;64.45
71396;DHT22;59888;55.814;37.132;2023-02-04T01:21:30;3.23;64.56
71396;DHT22;59888;55.814;37.132;2023-02-04T01:23:55;3.13;64.53
71396;DHT22;59888;55.814;37.132;2023-02-04T01:26:21;3.06;64.67
71396;DHT22;59888;55.814;37.132;2023-02-04T01:28:47;2.95;64.75
71396;DHT22;59888;55.814;37.132;2023-02-04T01:31:13;2.80;64.94
71396;DHT22;59888;55.814;37.132;2023-02-04T01:33:40;2.73;65.06
71396;DHT22;59888;55.814;37.132;2023-02-04T01:36:06;2.68;65.30
71396;DHT22;59888;55.814;37.132;2023-02-04T01:38:32;2.67;65.42
71396;DHT22;59888;55.814;37.132;2023-02-04T01:40:58;2.68;65.48
71396;DHT22;59888;55.814;37.132;2023-02-04T01:43:24;2.67;65.53
71396;DHT22;59888;55.814;37.132;2023-02-04T01:45:50;2.66;65.51
71396;DHT22;59888;55.814;37.132;2023-02-04T01:48:18;2.61;65.43
71396;DHT22;59888;55.814;37.132;2023-02-04T01:50:50;2.57;65.61
71396;DHT22;59888;55.814;37.132;2023-02-04T01:53:19;2.58;65.68
71396;DHT22;59888;55.814;37.132;2023-02-04T01:55:46;2.64;65.72
71396;DHT22;59888;55.814;37.132;2023-02-04T01:58:13;2.71;65.63
71396;DHT22;59888;55.814;37.132;2023-02-04T02:00:40;2.66;65.42
71396;DHT22;59888;55.814;37.132;2023-02-04T02:03:06;2.68;65.46
71396;DHT22;59888;55.814;37.132;2023-02-04T02:05:43;2.72;65.35
71396;DHT22;59888;55.814;37.132;2023-02-04T02:08:10;2.82;65.29
71396;DHT22;59888;55.814;37.132;2023-02-04T02:10:38;2.97;65.07
71396;DHT22;59888;55.814;37.132;2023-02-04T02:13:06;3.08;64.89
71396;DHT22;59888;55.814;37.132;2023-02-04T02:15:38;3.17;64.55
71396;DHT22;59888;55.814;37.132;2023-02-04T02:18:04;3.21;64.43
71396;DHT22;59888;55.814;37.132;2023-02-04T02:20:31;3.25;64.34
71396;DHT22;59888;55.814;37.132;2023-02-04T02:25:26;3.27;64.14
71396;DHT22;59888;55.814;37.132;2023-02-04T02:27:52;3.26;64.18
71396;DHT22;59888;55.814;37.132;2023-02-04T02:30:19;3.27;64.21
71396;DHT22;59888;55.814;37.132;2023-02-04T02:32:45;3.15;64.18
71396;DHT22;59888;55.814;37.132;2023-02-04T02:35:13;3.11;64.43
71396;DHT22;59888;55.814;37.132;2023-02-04T02:37:39;3.08;64.34
71396;DHT22;59888;55.814;37.132;2023-02-04T02:40:06;3.09;64.40
71396;DHT22;59888;55.814;37.132;2023-02-04T02:42:32;3.05;64.21
71396;DHT22;59888;55.814;37.132;2023-02-04T02:44:59;2.98;64.28
71396;DHT22;59888;55.814;37.132;2023-02-04T02:47:26;2.89;64.40
71396;DHT22;59888;55.814;37.132;2023-02-04T02:49:53;2.80;64.48
71396;DHT22;59888;55.814;37.132;2023-02-04T02:52:19;2.72;64.72
71396;DHT22;59888;55.814;37.132;2023-02-04T02:54:45;2.74;64.82
71396;DHT22;59888;55.814;37.132;2023-02-04T02:57:19;2.78;64.80
71396;DHT22;59888;55.814;37.132;2023-02-04T02:59:47;2.79;64.75
71396;DHT22;59888;55.814;37.132;2023-02-04T03:02:17;2.79;64.70
71396;DHT22;59888;55.814;37.132;2023-02-04T03:04:50;2.75;64.63
71396;DHT22;59888;55.814;37.132;2023-02-04T03:07:22;2.69;64.69
71396;DHT22;59888;55.814;37.132;2023-02-04T03:09:48;2.62;64.72
71396;DHT22;59888;55.814;37.132;2023-02-04T03:12:15;2.58;64.82
71396;DHT22;59888;55.814;37.132;2023-02-04T03:14:41;2.57;64.83
71396;DHT22;59888;55.814;37.132;2023-02-04T03:17:08;2.55;64.85
71396;DHT22;59888;55.814;37.132;2023-02-04T03:19:36;2.55;64.85
71396;DHT22;59888;55.814;37.132;2023-02-04T03:22:04;2.61;64.79
71396;DHT22;59888;55.814;37.132;2023-02-04T03:24:30;2.57;64.70
71396;DHT22;59888;55.814;37.132;2023-02-04T03:26:56;2.57;64.75
71396;DHT22;59888;55.814;37.132;2023-02-04T03:29:22;2.60;64.69
71396;DHT22;59888;55.814;37.132;2023-02-04T03:31:48;2.68;64.61
71396;DHT22;59888;55.814;37.132;2023-02-04T03:34:14;2.74;64.41
71396;DHT22;59888;55.814;37.132;2023-02-04T03:36:40;2.76;64.34
71396;DHT22;59888;55.814;37.132;2023-02-04T03:39:06;2.71;64.30
71396;DHT22;59888;55.814;37.132;2023-02-04T03:41:32;2.71;64.34
71396;DHT22;59888;55.814;37.132;2023-02-04T03:43:57;2.74;64.24
71396;DHT22;59888;55.814;37.132;2023-02-04T03:46:23;2.71;64.20
71396;DHT22;59888;55.814;37.132;2023-02-04T03:48:50;2.78;64.18
71396;DHT22;59888;55.814;37.132;2023-02-04T03:51:16;2.83;64.08
71396;DHT22;59888;55.814;37.132;2023-02-04T03:53:42;2.79;64.01
71396;DHT22;59888;55.814;37.132;2023-02-04T03:56:07;2.74;64.05
71396;DHT22;59888;55.814;37.132;2023-02-04T03:58:35;2.67;64.04
71396;DHT22;59888;55.814;37.132;2023-02-04T04:01:01;2.68;64.15
71396;DHT22;59888;55.814;37.132;2023-02-04T04:03:27;2.57;64.16
71396;DHT22;59888;55.814;37.132;2023-02-04T04:05:53;2.44;64.27
71396;DHT22;59888;55.814;37.132;2023-02-04T04:08:18;2.38;64.44
71396;DHT22;59888;55.814;37.132;2023-02-04T04:10:44;2.39;64.50
71396;DHT22;59888;55.814;37.132;2023-02-04T04:13:10;2.35;64.49
71396;DHT22;59888;55.814;37.132;2023-02-04T04:15:36;2.28;64.56
71396;DHT22;59888;55.814;37.132;2023-02-04T04:18:02;2.26;64.56
71396;DHT22;59888;55.814;37.132;2023-02-04T04:20:29;2.24;64.62
71396;DHT22;59888;55.814;37.132;2023-02-04T04:22:55;2.21;64.57
71396;DHT22;59888;55.814;37.132;2023-02-04T04:25:21;2.17;64.60
71396;DHT22;59888;55.814;37.132;2023-02-04T04:27:47;2.17;64.60
71396;DHT22;59888;55.814;37.132;2023-02-04T04:30:13;2.16;64.60
71396;DHT22;59888;55.814;37.132;2023-02-04T04:32:40;2.21;64.56
71396;DHT22;59888;55.814;37.132;2023-02-04T04:35:06;2.28;64.44
71396;DHT22;59888;55.814;37.132;2023-02-04T04:37:32;2.25;64.27
71396;DHT22;59888;55.814;37.132;2023-02-04T04:39:59;2.16;64.33
71396;DHT22;59888;55.814;37.132;2023-02-04T04:42:26;2.24;64.34
71396;DHT22;59888;55.814;37.132;2023-02-04T04:44:52;2.35;64.16
71396;DHT22;59888;55.814;37.132;2023-02-04T04:47:18;2.42;63.94
71396;DHT22;59888;55.814;37.132;2023-02-04T04:49:43;2.45;63.76
71396;DHT22;59888;55.814;37.132;2023-02-04T04:52:09;2.40;63.86
71396;DHT22;59888;55.814;37.132;2023-02-04T04:54:35;2.44;63.92
71396;DHT22;59888;55.814;37.132;2023-02-04T04:57:01;2.56;63.91
71396;DHT22;59888;55.814;37.132;2023-02-04T04:59:26;2.58;63.76
71396;DHT22;59888;55.814;37.132;2023-02-04T05:01:52;2.64;63.76
71396;DHT22;59888;55.814;37.132;2023-02-04T05:04:18;2.73;63.66
71396;DHT22;59888;55.814;37.132;2023-02-04T05:06:44;2.75;63.50
71396;DHT22;59888;55.814;37.132;2023-02-04T05:09:10;2.79;63.53
71396;DHT22;59888;55.814;37.132;2023-02-04T05:11:36;2.87;63.47
71396;DHT22;59888;55.814;37.132;2023-02-04T05:14:02;2.96;63.36
71396;DHT22;59888;55.814;37.132;2023-02-04T05:16:27;3.03;63.26
71396;DHT22;59888;55.814;37.132;2023-02-04T05:18:53;3.11;63.16
71396;DHT22;59888;55.814;37.132;2023-02-04T05:21:19;3.16;63.05
71396;DHT22;59888;55.814;37.132;2023-02-04T05:23:45;3.23;63.00
71396;DHT22;59888;55.814;37.132;2023-02-04T05:26:11;3.27;62.88
71396;DHT22;59888;55.814;37.132;2023-02-04T05:28:37;3.30;62.82
71396;DHT22;59888;55.814;37.132;2023-02-04T05:31:02;3.33;62.70
71396;DHT22;59888;55.814;37.132;2023-02-04T05:33:28;3.34;62.67
71396;DHT22;59888;55.814;37.132;2023-02-04T05:35:54;3.35;62.59
71396;DHT22;59888;55.814;37.132;2023-02-04T05:38:20;3.41;62.53
71396;DHT22;59888;55.814;37.132;2023-02-04T05:40:46;3.43;62.47
71396;DHT22;59888;55.814;37.132;2023-02-04T05:43:12;3.47;62.37
71396;DHT22;59888;55.814;37.132;2023-02-04T05:45:38;3.41;62.18
71396;DHT22;59888;55.814;37.132;2023-02-04T05:48:04;3.20;62.47
71396;DHT22;59888;55.814;37.132;2023-02-04T05:50:29;3.15;62.65
71396;DHT22;59888;55.814;37.132;2023-02-04T05:53:35;3.05;62.58
71396;DHT22;59888;55.814;37.132;2023-02-04T05:56:26;2.98;62.83
71396;DHT22;59888;55.814;37.132;2023-02-04T05:58:52;2.95;62.90
71396;DHT22;59888;55.814;37.132;2023-02-04T06:01:18;2.89;62.94
71396;DHT22;59888;55.814;37.132;2023-02-04T06:03:44;2.90;62.97
71396;DHT22;59888;55.814;37.132;2023-02-04T06:06:10;2.95;63.05
71396;DHT22;59888;55.814;37.132;2023-02-04T06:08:35;3.01;62.94
71396;DHT22;59888;55.814;37.132;2023-02-04T06:11:01;3.00;62.76
71396;DHT22;59888;55.814;37.132;2023-02-04T06:13:27;2.97;62.79
71396;DHT22;59888;55.814;37.132;2023-02-04T06:15:53;2.98;62.79
71396;DHT22;59888;55.814;37.132;2023-02-04T06:18:19;3.01;62.73
71396;DHT22;59888;55.814;37.132;2023-02-04T06:20:45;2.97;62.64
71396;DHT22;59888;55.814;37.132;2023-02-04T06:23:11;2.89;62.78
71396;DHT22;59888;55.814;37.132;2023-02-04T06:25:36;2.94;62.83
71396;DHT22;59888;55.814;37.132;2023-02-04T06:28:02;2.86;62.73
71396;DHT22;59888;55.814;37.132;2023-02-04T06:30:28;2.81;62.86
71396;DHT22;59888;55.814;37.132;2023-02-04T06:32:54;2.80;62.97
71396;DHT22;59888;55.814;37.132;2023-02-04T06:35:20;2.78;62.96
71396;DHT22;59888;55.814;37.132;2023-02-04T06:37:48;2.75;62.99
71396;DHT22;59888;55.814;37.132;2023-02-04T06:40:14;2.78;62.99
71396;DHT22;59888;55.814;37.132;2023-02-04T06:42:40;2.78;62.89
71396;DHT22;59888;55.814;37.132;2023-02-04T06:45:06;2.75;62.98
71396;DHT22;59888;55.814;37.132;2023-02-04T06:47:32;2.84;62.95
71396;DHT22;59888;55.814;37.132;2023-02-04T06:50:00;2.73;62.76
71396;DHT22;59888;55.814;37.132;2023-02-04T06:52:26;2.60;63.00
71396;DHT22;59888;55.814;37.132;2023-02-04T06:54:52;2.68;63.18
71396;DHT22;59888;55.814;37.132;2023-02-04T06:57:18;2.80;63.15
71396;DHT22;59888;55.814;37.132;2023-02-04T06:59:44;2.91;63.02
71396;DHT22;59888;55.814;37.132;2023-02-04T07:02:11;3.00;62.81
71396;DHT22;59888;55.814;37.132;2023-02-04T07:04:37;2.98;62.58
71396;DHT22;59888;55.814;37.132;2023-02-04T07:07:03;2.96;62.52
71396;DHT22;59888;55.814;37.132;2023-02-04T07:09:29;2.99;62.61
71396;DHT22;59888;55.814;37.132;2023-02-04T07:11:55;3.12;62.54
71396;DHT22;59888;55.814;37.132;2023-02-04T07:14:21;3.21;62.39
71396;DHT22;59888;55.814;37.132;2023-02-04T07:16:47;3.26;62.23
71396;DHT22;59888;55.814;37.132;2023-02-04T07:19:12;3.34;62.15
71396;DHT22;59888;55.814;37.132;2023-02-04T07:21:38;3.45;61.97
71396;DHT22;59888;55.814;37.132;2023-02-04T07:24:04;3.50;61.83
71396;DHT22;59888;55.814;37.132;2023-02-04T07:26:30;3.62;61.76
71396;DHT22;59888;55.814;37.132;2023-02-04T07:28:56;3.77;61.60
71396;DHT22;59888;55.814;37.132;2023-02-04T07:31:22;3.76;61.43
71396;DHT22;59888;55.814;37.132;2023-02-04T07:33:48;3.74;61.40
71396;DHT22;59888;55.814;37.132;2023-02-04T07:36:14;3.78;61.42
71396;DHT22;59888;55.814;37.132;2023-02-04T07:38:39;3.86;61.15
71396;DHT22;59888;55.814;37.132;2023-02-04T07:41:05;3.80;61.12
71396;DHT22;59888;55.814;37.132;2023-02-04T07:43:31;3.77;61.07
71396;DHT22;59888;55.814;37.132;2023-02-04T07:45:57;3.73;61.18
71396;DHT22;59888;55.814;37.132;2023-02-04T07:48:23;3.79;61.23
71396;DHT22;59888;55.814;37.132;2023-02-04T07:50:48;3.82;61.18
71396;DHT22;59888;55.814;37.132;2023-02-04T07:53:14;3.86;61.09
71396;DHT22;59888;55.814;37.132;2023-02-04T07:55:40;3.97;61.07
71396;DHT22;59888;55.814;37.132;2023-02-04T07:58:06;4.04;60.96
71396;DHT22;59888;55.814;37.132;2023-02-04T08:00:32;4.13;60.78
71396;DHT22;59888;55.814;37.132;2023-02-04T08:02:58;4.18;60.76
71396;DHT22;59888;55.814;37.132;2023-02-04T08:05:24;4.21;60.50
71396;DHT22;59888;55.814;37.132;2023-02-04T08:07:49;4.27;60.51
71396;DHT22;59888;55.814;37.132;2023-02-04T08:10:15;4.37;60.49
71396;DHT22;59888;55.814;37.132;2023-02-04T08:12:41;4.48;60.26
71396;DHT22;59888;55.814;37.132;2023-02-04T08:15:07;4.52;60.03
71396;DHT22;59888;55.814;37.132;2023-02-04T08:17:34;4.56;60.13
71396;DHT22;59888;55.814;37.132;2023-02-04T08:20:00;4.69;60.18
71396;DHT22;59888;55.814;37.132;2023-02-04T08:22:26;4.83;59.86
71396;DHT22;59888;55.814;37.132;2023-02-04T08:24:52;4.87;59.76
71396;DHT22;59888;55.814;37.132;2023-02-04T08:27:17;4.86;59.54
71396;DHT22;59888;55.814;37.132;2023-02-04T08:29:43;5.00;59.61
71396;DHT22;59888;55.814;37.132;2023-02-04T08:32:09;5.03;59.44
71396;DHT22;59888;55.814;37.132;2023-02-04T08:34:38;5.09;59.42
71396;DHT22;59888;55.814;37.132;2023-02-04T08:37:04;5.10;59.09
71396;DHT22;59888;55.814;37.132;2023-02-04T08:39:30;5.05;59.18
71396;DHT22;59888;55.814;37.132;2023-02-04T08:41:57;5.05;59.09
71396;DHT22;59888;55.814;37.132;2023-02-04T08:44:23;5.04;58.64
71396;DHT22;59888;55.814;37.132;2023-02-04T08:46:49;5.08;59.14
71396;DHT22;59888;55.814;37.132;2023-02-04T08:49:15;5.18;58.94
71396;DHT22;59888;55.814;37.132;2023-02-04T08:51:41;5.19;58.93
71396;DHT22;59888;55.814;37.132;2023-02-04T08:54:06;5.26;58.95
71396;DHT22;59888;55.814;37.132;2023-02-04T08:56:32;5.34;58.99
71396;DHT22;59888;55.814;37.132;2023-02-04T08:59:00;5.40;58.74
71396;DHT22;59888;55.814;37.132;2023-02-04T09:01:26;5.46;58.82
71396;DHT22;59888;55.814;37.132;2023-02-04T09:03:52;5.51;58.39
71396;DHT22;59888;55.814;37.132;2023-02-04T09:06:18;5.55;58.53
71396;DHT22;59888;55.814;37.132;2023-02-04T09:08:44;5.62;58.54
71396;DHT22;59888;55.814;37.132;2023-02-04T09:11:09;5.61;58.36
71396;DHT22;59888;55.814;37.132;2023-02-04T09:13:37;5.66;58.46
71396;DHT22;59888;55.814;37.132;2023-02-04T09:16:04;5.72;58.32
71396;DHT22;59888;55.814;37.132;2023-02-04T09:18:30;5.78;58.16
71396;DHT22;59888;55.814;37.132;2023-02-04T09:20:57;5.76;58.16
71396;DHT22;59888;55.814;37.132;2023-02-04T09:23:23;5.77;58.16
71396;DHT22;59888;55.814;37.132;2023-02-04T09:25:50;5.82;57.96
71396;DHT22;59888;55.814;37.132;2023-02-04T09:28:16;5.85;57.99
71396;DHT22;59888;55.814;37.132;2023-02-04T09:30:43;5.86;57.91
71396;DHT22;59888;55.814;37.132;2023-02-04T09:33:12;5.82;57.76
71396;DHT22;59888;55.814;37.132;2023-02-04T09:35:38;5.80;57.98
71396;DHT22;59888;55.814;37.132;2023-02-04T09:38:04;5.83;57.90
71396;DHT22;59888;55.814;37.132;2023-02-04T09:40:35;5.87;57.76
71396;DHT22;59888;55.814;37.132;2023-02-04T09:43:03;5.95;57.97
71396;DHT22;59888;55.814;37.132;2023-02-04T09:45:32;5.96;57.54
71396;DHT22;59888;55.814;37.132;2023-02-04T09:48:01;5.94;57.55
71396;DHT22;59888;55.814;37.132;2023-02-04T09:50:29;5.93;57.11
71396;DHT22;59888;55.814;37.132;2023-02-04T09:53:00;5.87;57.42
71396;DHT22;59888;55.814;37.132;2023-02-04T09:55:36;5.83;57.41
71396;DHT22;59888;55.814;37.132;2023-02-04T09:58:09;5.81;57.62
71396;DHT22;59888;55.814;37.132;2023-02-04T10:00:36;5.83;57.64
71396;DHT22;59888;55.814;37.132;2023-02-04T10:03:02;5.85;57.48
71396;DHT22;59888;55.814;37.132;2023-02-04T10:05:31;5.82;57.64
71396;DHT22;59888;55.814;37.132;2023-02-04T10:07:58;5.75;57.26
71396;DHT22;59888;55.814;37.132;2023-02-04T10:10:26;5.61;57.48
71396;DHT22;59888;55.814;37.132;2023-02-04T10:12:59;5.62;57.73
71396;DHT22;59888;55.814;37.132;2023-02-04T10:15:27;5.61;57.82
71396;DHT22;59888;55.814;37.132;2023-02-04T10:18:04;5.61;57.71
71396;DHT22;59888;55.814;37.132;2023-02-04T10:20:31;5.66;57.78
71396;DHT22;59888;55.814;37.132;2023-02-04T10:22:57;5.71;57.91
71396;DHT22;59888;55.814;37.132;2023-02-04T10:25:24;5.74;57.83
71396;DHT22;59888;55.814;37.132;2023-02-04T10:27:56;5.76;57.78
71396;DHT22;59888;55.814;37.132;2023-02-04T10:30:29;5.77;57.64
71396;DHT22;59888;55.814;37.132;2023-02-04T10:32:58;5.79;57.51
71396;DHT22;59888;55.814;37.132;2023-02-04T10:35:25;5.78;57.53
71396;DHT22;59888;55.814;37.132;2023-02-04T10:38:08;5.77;57.41
71396;DHT22;59888;55.814;37.132;2023-02-04T10:40:35;5.84;57.56
71396;DHT22;59888;55.814;37.132;2023-02-04T10:43:20;5.87;57.35
71396;DHT22;59888;55.814;37.132;2023-02-04T10:45:55;5.90;56.99
71396;DHT22;59888;55.814;37.132;2023-02-04T10:48:21;5.86;57.42
71396;DHT22;59888;55.814;37.132;2023-02-04T10:50:47;5.84;57.29
71396;DHT22;59888;55.814;37.132;2023-02-04T10:53:15;5.85;57.30
71396;DHT22;59888;55.814;37.132;2023-02-04T10:56:01;5.79;57.00
71396;DHT22;59888;55.814;37.132;2023-02-04T10:58:29;5.71;57.24
71396;DHT22;59888;55.814;37.132;2023-02-04T11:00:58;5.69;57.30
71396;DHT22;59888;55.814;37.132;2023-02-04T11:03:27;5.69;57.27
71396;DHT22;59888;55.814;37.132;2023-02-04T11:05:57;5.57;56.44
71396;DHT22;59888;55.814;37.132;2023-02-04T11:08:27;5.41;57.22
71396;DHT22;59888;55.814;37.132;2023-02-04T11:11:07;5.35;57.25
71396;DHT22;59888;55.814;37.132;2023-02-04T11:13:44;5.33;57.09
71396;DHT22;59888;55.814;37.132;2023-02-04T11:18:47;5.20;57.63
71396;DHT22;59888;55.814;37.132;2023-02-04T11:26:42;5.02;57.63
71396;DHT22;59888;55.814;37.132;2023-02-04T11:39:46;4.86;57.89
71396;DHT22;59888;55.814;37.132;2023-02-04T11:45:04;4.89;57.99
71396;DHT22;59888;55.814;37.132;2023-02-04T11:47:35;4.94;58.02
71396;DHT22;59888;55.814;37.132;2023-02-04T11:50:09;4.84;58.12
71396;DHT22;59888;55.814;37.132;2023-02-04T11:52:36;4.82;58.13
71396;DHT22;59888;55.814;37.132;2023-02-04T11:55:02;4.79;57.98
71396;DHT22;59888;55.814;37.132;2023-02-04T11:57:37;4.71;57.97
71396;DHT22;59888;55.814;37.132;2023-02-04T12:00:04;4.63;58.19
71396;DHT22;59888;55.814;37.132;2023-02-04T12:02:41;4.53;58.22
71396;DHT22;59888;55.814;37.132;2023-02-04T12:05:17;4.50;58.35
71396;DHT22;59888;55.814;37.132;2023-02-04T12:07:44;4.48;58.63
71396;DHT22;59888;55.814;37.132;2023-02-04T12:12:53;4.43;58.82
71396;DHT22;59888;55.814;37.132;2023-02-04T12:15:24;4.33;58.76
71396;DHT22;59888;55.814;37.132;2023-02-04T12:18:07;4.31;58.99
71396;DHT22;59888;55.814;37.132;2023-02-04T12:20:34;4.36;59.04
71396;DHT22;59888;55.814;37.132;2023-02-04T12:23:01;4.37;59.06
71396;DHT22;59888;55.814;37.132;2023-02-04T12:25:27;4.37;59.06
71396;DHT22;59888;55.814;37.132;2023-02-04T12:27:53;4.34;58.95
71396;DHT22;59888;55.814;37.132;2023-02-04T12:30:24;4.24;58.89
71396;DHT22;59888;55.814;37.132;2023-02-04T12:32:51;4.18;59.11
71396;DHT22;59888;55.814;37.132;2023-02-04T12:35:17;4.19;59.27
71396;DHT22;59888;55.814;37.132;2023-02-04T12:37:43;4.28;59.25
71396;DHT22;59888;55.814;37.132;2023-02-04T12:40:16;4.22;59.22
71396;DHT22;59888;55.814;37.132;2023-02-04T12:42:43;4.21;59.26
71396;DHT22;59888;55.814;37.132;2023-02-04T12:45:10;4.21;59.32
71396;DHT22;59888;55.814;37.132;2023-02-04T12:47:36;4.23;59.38
71396;DHT22;59888;55.814;37.132;2023-02-04T12:50:05;4.26;59.28
71396;DHT22;59888;55.814;37.132;2023-02-04T12:52:31;4.29;59.39
71396;DHT22;59888;55.814;37.132;2023-02-04T12:54:57;4.35;59.44
71396;DHT22;59888;55.814;37.132;2023-02-04T12:57:25;4.37;59.38
71396;DHT22;59888;55.814;37.132;2023-02-04T12:59:51;4.41;59.18
71396;DHT22;59888;55.814;37.132;2023-02-04T13:02:17;4.38;59.24
71396;DHT22;59888;55.814;37.132;2023-02-04T13:04:43;4.38;59.35
71396;DHT22;59888;55.814;37.132;2023-02-04T13:07:09;4.37;59.33
71396;DHT22;59888;55.814;37.132;2023-02-04T13:09:35;4.35;59.40
71396;DHT22;59888;55.814;37.132;2023-02-04T13:12:02;4.28;59.28
71396;DHT22;59888;55.814;37.132;2023-02-04T13:14:28;4.23;59.38
71396;DHT22;59888;55.814;37.132;2023-02-04T13:16:54;4.26;59.41
71396;DHT22;59888;55.814;37.132;2023-02-04T13:19:20;4.21;59.32
71396;DHT22;59888;55.814;37.132;2023-02-04T13:21:46;4.15;59.43
71396;DHT22;59888;55.814;37.132;2023-02-04T13:24:11;4.10;59.52
71396;DHT22;59888;55.814;37.132;2023-02-04T13:26:37;4.09;59.58
71396;DHT22;59888;55.814;37.132;2023-02-04T13:29:03;4.03;59.60
71396;DHT22;59888;55.814;37.132;2023-02-04T13:31:29;3.97;59.70
71396;DHT22;59888;55.814;37.132;2023-02-04T13:33:55;3.95;59.82
71396;DHT22;59888;55.814;37.132;2023-02-04T13:36:20;3.94;59.81
71396;DHT22;59888;55.814;37.132;2023-02-04T13:38:46;3.89;59.84
71396;DHT22;59888;55.814;37.132;2023-02-04T13:41:12;3.82;59.87
71396;DHT22;59888;55.814;37.132;2023-02-04T13:43:38;3.76;60.08
71396;DHT22;59888;55.814;37.132;2023-02-04T13:46:04;3.78;60.20
71396;DHT22;59888;55.814;37.132;2023-02-04T13:48:30;3.84;60.19
71396;DHT22;59888;55.814;37.132;2023-02-04T13:50:56;3.90;60.13
71396;DHT22;59888;55.814;37.132;2023-02-04T13:53:22;3.92;60.06
71396;DHT22;59888;55.814;37.132;2023-02-04T13:55:49;3.87;59.96
71396;DHT22;59888;55.814;37.132;2023-02-04T13:58:15;3.88;60.04
71396;DHT22;59888;55.814;37.132;2023-02-04T14:00:41;3.85;59.97
71396;DHT22;59888;55.814;37.132;2023-02-04T14:03:07;3.86;60.01
71396;DHT22;59888;55.814;37.132;2023-02-04T14:05:32;3.88;59.83
71396;DHT22;59888;55.814;37.132;2023-02-04T14:07:58;3.85;59.99
71396;DHT22;59888;55.814;37.132;2023-02-04T14:10:24;3.90;60.02
71396;DHT22;59888;55.814;37.132;2023-02-04T14:12:51;3.88;59.83
71396;DHT22;59888;55.814;37.132;2023-02-04T14:15:17;3.86;59.88
71396;DHT22;59888;55.814;37.132;2023-02-04T14:17:43;3.82;59.83
71396;DHT22;59888;55.814;37.132;2023-02-04T14:20:09;3.72;59.94
71396;DHT22;59888;55.814;37.132;2023-02-04T14:22:35;3.71;60.14
71396;DHT22;59888;55.814;37.132;2023-02-04T14:25:01;3.69;60.20
71396;DHT22;59888;55.814;37.132;2023-02-04T14:27:28;3.69;60.18
71396;DHT22;59888;55.814;37.132;2023-02-04T14:29:54;3.68;60.19
71396;DHT22;59888;55.814;37.132;2023-02-04T14:32:20;3.69;60.25
71396;DHT22;59888;55.814;37.132;2023-02-04T14:34:46;3.62;60.28
71396;DHT22;59888;55.814;37.132;2023-02-04T14:37:11;3.56;60.33
71396;DHT22;59888;55.814;37.132;2023-02-04T14:39:37;3.54;60.38
71396;DHT22;59888;55.814;37.132;2023-02-04T14:42:03;3.54;60.42
71396;DHT22;59888;55.814;37.132;2023-02-04T14:44:30;3.54;60.42
71396;DHT22;59888;55.814;37.132;2023-02-04T14:46:56;3.47;60.29
71396;DHT22;59888;55.814;37.132;2023-02-04T14:49:22;3.42;60.45
71396;DHT22;59888;55.814;37.132;2023-02-04T14:51:48;3.41;60.58
71396;DHT22;59888;55.814;37.132;2023-02-04T14:54:14;3.41;60.61
71396;DHT22;59888;55.814;37.132;2023-02-04T14:56:41;3.39;60.64
71396;DHT22;59888;55.814;37.132;2023-02-04T14:59:09;3.43;60.68
71396;DHT22;59888;55.814;37.132;2023-02-04T15:01:34;3.46;60.57
71396;DHT22;59888;55.814;37.132;2023-02-04T15:04:00;3.46;60.58
71396;DHT22;59888;55.814;37.132;2023-02-04T15:06:26;3.48;60.54
71396;DHT22;59888;55.814;37.132;2023-02-04T15:08:52;3.49;60.53
71396;DHT22;59888;55.814;37.132;2023-02-04T15:11:18;3.50;60.35
71396;DHT22;59888;55.814;37.132;2023-02-04T15:13:50;3.48;60.38
71396;DHT22;59888;55.814;37.132;2023-02-04T15:16:20;3.49;60.38
71396;DHT22;59888;55.814;37.132;2023-02-04T15:18:46;3.48;60.26
71396;DHT22;59888;55.814;37.132;2023-02-04T15:21:12;3.44;60.29
71396;DHT22;59888;55.814;37.132;2023-02-04T15:23:38;3.48;60.38
71396;DHT22;59888;55.814;37.132;2023-02-04T15:26:04;3.48;60.31
71396;DHT22;59888;55.814;37.132;2023-02-04T15:28:30;3.49;60.34
71396;DHT22;59888;55.814;37.132;2023-02-04T15:30:56;3.56;60.38
71396;DHT22;59888;55.814;37.132;2023-02-04T15:33:22;3.59;60.11
71396;DHT22;59888;55.814;37.132;2023-02-04T15:35:48;3.53;60.09
71396;DHT22;59888;55.814;37.132;2023-02-04T15:38:22;3.49;60.09
71396;DHT22;59888;55.814;37.132;2023-02-04T15:40:49;3.44;60.06
71396;DHT22;59888;55.814;37.132;2023-02-04T15:43:15;3.39;60.18
71396;DHT22;59888;55.814;37.132;2023-02-04T15:45:41;3.41;60.27
71396;DHT22;59888;55.814;37.132;2023-02-04T15:48:09;3.39;60.22
71396;DHT22;59888;55.814;37.132;2023-02-04T15:50:36;3.36;60.22
71396;DHT22;59888;55.814;37.132;2023-02-04T15:53:02;3.36;60.29
71396;DHT22;59888;55.814;37.132;2023-02-04T15:55:28;3.38;60.25